Time;durP1;ratioP1;P1;durP2;ratioP2;P2;SDS_P1;SDS_P2;PMS_P1;PMS_P2;Temp;Humidity;BMP_temperature;BMP_pressure;BME280_temperature;BME280_humidity;BME280_pressure;Samples;Min_cycle;Max_cycle;Signal;HPM_P1;HPM_P2
2022/10/21 00:00:05;;;;;;;;;;;13.10;99.90;;;;;;5086705;28;20321;-74
2022/10/21 00:02:40;;;;;;;;;;;13.10;99.90;;;;;;5093779;28;19928;-75
2022/10/21 00:05:07;;;;;;;;;;;13.10;99.90;;;;;;5080522;28;20032;-74
2022/10/21 00:07:34;;;;;;;;;;;13.10;99.90;;;;;;5080185;28;19970;-74
2022/10/21 00:10:01;;;;;;;;;;;13.10;99.90;;;;;;5087085;28;19924;-74
2022/10/21 00:12:28;;;;;;;;;;;13.10;99.90;;;;;;5077531;28;20451;-74
2022/10/21 00:14:55;;;;;;;;;;;13.10;99.90;;;;;;5076681;28;20011;-74
2022/10/21 00:17:23;;;;;;;;;;;13.10;99.90;;;;;;5078624;28;19935;-74
2022/10/21 00:19:50;;;;;;;;;;;13.10;99.90;;;;;;5085891;28;20310;-74
2022/10/21 00:22:17;;;;;;;;;;;13.10;99.90;;;;;;5080421;28;19924;-74
2022/10/21 00:24:43;;;;;;;;;;;13.10;99.90;;;;;;5086051;28;19931;-74
2022/10/21 00:27:10;;;;;;;;;;;13.10;99.90;;;;;;5087721;28;19934;-74
2022/10/21 00:29:37;;;;;;;;;;;13.10;99.90;;;;;;5082807;28;22039;-74
2022/10/21 00:32:04;;;;;;;;;;;13.10;99.90;;;;;;5080749;28;19994;-73
2022/10/21 00:34:32;;;;;;;;;;;13.10;99.90;;;;;;5087303;28;20374;-75
2022/10/21 00:36:59;;;;;;;;;;;13.10;99.90;;;;;;5091828;28;20448;-74
2022/10/21 00:39:26;;;;;;;;;;;13.10;99.90;;;;;;5075224;28;20047;-74
2022/10/21 00:41:53;;;;;;;;;;;13.10;99.90;;;;;;5081460;28;19923;-75
2022/10/21 00:44:20;;;;;;;;;;;13.10;99.90;;;;;;5084089;28;19950;-74
2022/10/21 00:46:49;;;;;;;;;;;13.10;99.90;;;;;;5088560;28;19928;-74
2022/10/21 00:49:17;;;;;;;;;;;13.00;99.90;;;;;;5073650;28;19932;-74
2022/10/21 00:51:47;;;;;;;;;;;13.00;99.90;;;;;;5077140;28;20015;-74
2022/10/21 00:54:14;;;;;;;;;;;13.00;99.90;;;;;;5086838;28;19928;-74
2022/10/21 00:56:42;;;;;;;;;;;13.00;99.90;;;;;;5083899;28;19928;-74
2022/10/21 00:59:09;;;;;;;;;;;13.00;99.90;;;;;;5080859;28;20027;-74
2022/10/21 01:01:36;;;;;;;;;;;13.00;99.90;;;;;;5074645;28;20445;-74
2022/10/21 01:04:05;;;;;;;;;;;13.00;99.90;;;;;;5078516;28;20201;-75
2022/10/21 01:06:32;;;;;;;;;;;13.00;99.90;;;;;;5090435;28;19924;-74
2022/10/21 01:09:04;;;;;;;;;;;13.00;99.90;;;;;;5082417;27;19932;-74
2022/10/21 01:11:35;;;;;;;;;;;13.00;99.90;;;;;;5077789;28;20451;-75
2022/10/21 01:14:09;;;;;;;;;;;13.00;99.90;;;;;;5087614;28;19927;-74
2022/10/21 01:16:42;;;;;;;;;;;13.00;99.90;;;;;;5080134;28;20024;-74
2022/10/21 01:19:17;;;;;;;;;;;13.00;99.90;;;;;;5085589;28;20575;-74
2022/10/21 01:21:47;;;;;;;;;;;13.00;99.90;;;;;;5082602;28;19955;-74
2022/10/21 01:24:32;;;;;;;;;;;13.00;99.90;;;;;;5089372;28;20394;-75
2022/10/21 01:27:05;;;;;;;;;;;13.00;99.90;;;;;;5091065;28;19931;-74
2022/10/21 01:29:43;;;;;;;;;;;13.00;99.90;;;;;;5090666;28;19924;-74
2022/10/21 01:32:16;;;;;;;;;;;13.00;99.90;;;;;;5080643;28;20008;-73
2022/10/21 01:34:45;;;;;;;;;;;13.00;99.90;;;;;;5089747;28;20357;-74
2022/10/21 01:37:17;;;;;;;;;;;13.00;99.90;;;;;;5082354;28;20390;-74
2022/10/21 01:39:48;;;;;;;;;;;13.00;99.90;;;;;;5074227;28;19924;-74
2022/10/21 01:42:19;;;;;;;;;;;13.00;99.90;;;;;;5085707;28;20035;-74
2022/10/21 01:44:50;;;;;;;;;;;13.00;99.90;;;;;;5095442;28;20427;-74
2022/10/21 01:47:20;;;;;;;;;;;13.00;99.90;;;;;;5090686;28;19928;-74
2022/10/21 01:49:49;;;;;;;;;;;13.00;99.90;;;;;;5081094;28;20028;-74
2022/10/21 01:52:16;;;;;;;;;;;13.00;99.90;;;;;;5089925;28;19923;-74
2022/10/21 01:54:44;;;;;;;;;;;13.00;99.90;;;;;;5087552;28;19924;-75
2022/10/21 01:57:13;;;;;;;;;;;13.00;99.90;;;;;;5086178;28;20321;-74
2022/10/21 01:59:41;;;;;;;;;;;13.10;99.90;;;;;;5080925;28;20445;-74
2022/10/21 02:02:09;;;;;;;;;;;13.00;99.90;;;;;;5091420;28;20446;-74
2022/10/21 02:04:39;;;;;;;;;;;13.00;99.90;;;;;;5084081;28;19928;-74
2022/10/21 02:07:06;;;;;;;;;;;13.00;99.90;;;;;;5090133;28;19923;-74
2022/10/21 02:09:33;;;;;;;;;;;13.00;99.90;;;;;;5076972;28;19924;-74
2022/10/21 02:12:00;;;;;;;;;;;13.00;99.90;;;;;;5089668;28;19965;-74
2022/10/21 02:14:30;;;;;;;;;;;13.00;99.90;;;;;;5087994;28;19960;-74
2022/10/21 02:16:58;;;;;;;;;;;12.90;99.90;;;;;;5093945;28;19979;-74
2022/10/21 02:19:25;;;;;;;;;;;13.00;99.90;;;;;;5079653;28;20383;-74
2022/10/21 02:21:56;;;;;;;;;;;13.00;99.90;;;;;;5084010;28;20087;-74
2022/10/21 02:24:27;;;;;;;;;;;13.00;99.90;;;;;;5089375;28;19924;-74
2022/10/21 02:26:54;;;;;;;;;;;13.00;99.90;;;;;;5083659;28;19924;-74
2022/10/21 02:29:22;;;;;;;;;;;13.00;99.90;;;;;;5082854;28;20019;-74
2022/10/21 02:32:01;;;;;;;;;;;13.00;99.90;;;;;;5094200;28;19928;-74
2022/10/21 02:34:31;;;;;;;;;;;12.90;99.90;;;;;;5082837;28;20252;-74
2022/10/21 02:37:04;;;;;;;;;;;13.00;99.90;;;;;;5089138;28;19924;-74
2022/10/21 02:39:33;;;;;;;;;;;12.90;99.90;;;;;;5083661;28;20353;-74
2022/10/21 02:42:01;;;;;;;;;;;13.00;99.90;;;;;;5082227;28;20011;-75
2022/10/21 02:44:28;;;;;;;;;;;13.00;99.90;;;;;;5083262;28;20012;-74
2022/10/21 02:46:55;;;;;;;;;;;12.90;99.90;;;;;;5081722;28;20460;-74
2022/10/21 02:49:22;;;;;;;;;;;13.00;99.90;;;;;;5069526;28;19982;-74
2022/10/21 02:51:49;;;;;;;;;;;13.00;99.90;;;;;;5085864;28;19935;-74
2022/10/21 02:54:17;;;;;;;;;;;12.90;99.90;;;;;;5090699;28;20462;-74
2022/10/21 02:56:43;;;;;;;;;;;12.90;99.90;;;;;;5084142;28;19924;-74
2022/10/21 02:59:10;;;;;;;;;;;13.00;99.90;;;;;;5085076;28;20016;-74
2022/10/21 03:01:37;;;;;;;;;;;13.00;99.90;;;;;;5090835;28;19986;-75
2022/10/21 03:04:04;;;;;;;;;;;13.00;99.90;;;;;;5080700;28;19924;-74
2022/10/21 03:06:31;;;;;;;;;;;13.00;99.90;;;;;;5085672;28;19928;-74
2022/10/21 03:08:58;;;;;;;;;;;12.90;99.90;;;;;;5088785;28;20023;-74
2022/10/21 03:11:26;;;;;;;;;;;13.00;99.90;;;;;;5089502;28;20022;-74
2022/10/21 03:13:52;;;;;;;;;;;12.90;99.90;;;;;;5082367;28;19924;-74
2022/10/21 03:16:19;;;;;;;;;;;12.90;99.90;;;;;;5082688;28;19963;-74
2022/10/21 03:18:46;;;;;;;;;;;12.90;99.90;;;;;;5084524;28;19974;-74
2022/10/21 03:21:13;;;;;;;;;;;12.90;99.90;;;;;;5089388;28;19964;-74
2022/10/21 03:23:40;;;;;;;;;;;12.90;99.90;;;;;;5088352;28;19924;-74
2022/10/21 03:26:06;;;;;;;;;;;13.00;99.90;;;;;;5082224;28;20014;-74
2022/10/21 03:28:34;;;;;;;;;;;12.90;99.90;;;;;;5084107;28;19928;-74
2022/10/21 03:31:01;;;;;;;;;;;13.00;99.90;;;;;;5075754;28;19935;-74
2022/10/21 03:33:28;;;;;;;;;;;13.00;99.90;;;;;;5084078;28;19928;-74
2022/10/21 03:35:55;;;;;;;;;;;13.00;99.90;;;;;;5078561;28;19928;-74
2022/10/21 03:38:21;;;;;;;;;;;13.00;99.90;;;;;;5080032;28;20018;-74
2022/10/21 03:40:49;;;;;;;;;;;13.00;99.90;;;;;;5082899;28;19932;-74
2022/10/21 03:43:16;;;;;;;;;;;13.00;99.90;;;;;;5089297;28;19928;-74
2022/10/21 03:45:44;;;;;;;;;;;13.00;99.90;;;;;;5085016;28;20171;-74
2022/10/21 03:48:12;;;;;;;;;;;13.00;99.90;;;;;;5075477;28;19938;-74
2022/10/21 03:50:38;;;;;;;;;;;13.00;99.90;;;;;;5081148;28;19930;-74
2022/10/21 03:53:05;;;;;;;;;;;13.00;99.90;;;;;;5094227;28;19924;-74
2022/10/21 03:55:32;;;;;;;;;;;13.00;99.90;;;;;;5082266;28;19925;-74
2022/10/21 03:57:59;;;;;;;;;;;13.00;99.90;;;;;;5086228;28;19936;-74
2022/10/21 04:00:25;;;;;;;;;;;12.90;99.90;;;;;;5084462;28;19929;-74
2022/10/21 04:02:54;;;;;;;;;;;13.00;99.90;;;;;;5080793;28;20023;-74
2022/10/21 04:05:20;;;;;;;;;;;13.00;99.90;;;;;;5079363;28;20010;-74
2022/10/21 04:07:47;;;;;;;;;;;13.00;99.90;;;;;;5084003;28;19928;-74
2022/10/21 04:10:14;;;;;;;;;;;13.00;99.90;;;;;;5091265;28;19925;-74
2022/10/21 04:12:41;;;;;;;;;;;13.00;99.90;;;;;;5080264;28;20391;-74
2022/10/21 04:15:08;;;;;;;;;;;13.00;99.90;;;;;;5081289;28;19928;-74
2022/10/21 04:17:35;;;;;;;;;;;13.00;99.90;;;;;;5092604;28;20321;-74
2022/10/21 04:20:06;;;;;;;;;;;12.90;99.90;;;;;;5077086;28;19960;-74
2022/10/21 04:22:33;;;;;;;;;;;12.90;99.90;;;;;;5077419;28;20338;-74
2022/10/21 04:25:00;;;;;;;;;;;12.90;99.90;;;;;;5085354;28;20018;-73
2022/10/21 04:27:26;;;;;;;;;;;12.90;99.90;;;;;;5077117;28;19932;-74
2022/10/21 04:29:53;;;;;;;;;;;12.90;99.90;;;;;;5080222;28;20003;-74
2022/10/21 04:32:20;;;;;;;;;;;12.90;99.90;;;;;;5075934;28;20367;-74
2022/10/21 04:34:47;;;;;;;;;;;13.00;99.90;;;;;;5080484;28;19963;-76
2022/10/21 04:37:15;;;;;;;;;;;12.90;99.90;;;;;;5069473;28;19984;-80
2022/10/21 04:39:42;;;;;;;;;;;12.90;99.90;;;;;;5078282;28;19928;-73
2022/10/21 04:42:08;;;;;;;;;;;12.90;99.90;;;;;;5084362;28;19928;-77
2022/10/21 04:44:37;;;;;;;;;;;12.90;99.90;;;;;;5077194;28;19924;-73
2022/10/21 04:47:04;;;;;;;;;;;12.90;99.90;;;;;;5071732;28;19932;-77
2022/10/21 04:49:30;;;;;;;;;;;12.90;99.90;;;;;;5082018;28;19963;-88
2022/10/21 04:51:57;;;;;;;;;;;12.90;99.90;;;;;;5070421;28;20009;-71
2022/10/21 04:54:25;;;;;;;;;;;12.90;99.90;;;;;;5077953;28;19924;-88
2022/10/21 04:56:52;;;;;;;;;;;12.90;99.90;;;;;;5073467;28;19981;-75
2022/10/21 04:59:19;;;;;;;;;;;12.90;99.90;;;;;;5074558;28;20382;-75
2022/10/21 05:01:46;;;;;;;;;;;12.90;99.90;;;;;;5075854;28;19982;-79
2022/10/21 05:04:13;;;;;;;;;;;12.90;99.90;;;;;;5086392;28;19928;-74
2022/10/21 05:06:39;;;;;;;;;;;13.00;99.90;;;;;;5078741;28;20003;-74
2022/10/21 05:09:06;;;;;;;;;;;12.90;99.90;;;;;;5071779;28;19924;-74
2022/10/21 05:11:34;;;;;;;;;;;12.90;99.90;;;;;;5075145;28;20389;-74
2022/10/21 05:14:01;;;;;;;;;;;12.90;99.90;;;;;;5075822;28;19954;-73
2022/10/21 05:16:28;;;;;;;;;;;12.90;99.90;;;;;;5079717;28;19928;-73
2022/10/21 05:18:55;;;;;;;;;;;12.90;99.90;;;;;;5067118;28;19956;-74
2022/10/21 05:21:22;;;;;;;;;;;12.90;99.90;;;;;;5080386;28;19928;-74
2022/10/21 05:23:48;;;;;;;;;;;12.90;99.90;;;;;;5081241;28;19963;-79
2022/10/21 05:26:15;;;;;;;;;;;12.90;99.90;;;;;;5080652;28;20062;-74
2022/10/21 05:28:43;;;;;;;;;;;13.00;99.90;;;;;;5079237;28;19975;-74
2022/10/21 05:31:10;;;;;;;;;;;13.10;99.90;;;;;;5080757;28;20430;-72
2022/10/21 05:33:37;;;;;;;;;;;13.00;99.90;;;;;;5075677;28;20017;-74
2022/10/21 05:36:06;;;;;;;;;;;13.00;99.90;;;;;;5071472;28;19966;-73
2022/10/21 05:38:33;;;;;;;;;;;13.00;99.90;;;;;;5069664;28;20021;-74
2022/10/21 05:41:01;;;;;;;;;;;13.00;99.90;;;;;;5085533;28;20378;-73
2022/10/21 05:43:28;;;;;;;;;;;13.00;99.90;;;;;;5080207;28;20023;-74
2022/10/21 05:45:56;;;;;;;;;;;13.00;99.90;;;;;;5080225;28;19932;-73
2022/10/21 05:48:23;;;;;;;;;;;13.00;99.90;;;;;;5078521;28;19928;-74
2022/10/21 05:50:51;;;;;;;;;;;13.00;99.90;;;;;;5067157;28;19930;-74
2022/10/21 05:53:18;;;;;;;;;;;13.00;99.90;;;;;;5075998;28;19924;-74
2022/10/21 05:55:45;;;;;;;;;;;13.00;99.90;;;;;;5077418;28;19959;-74
2022/10/21 05:58:11;;;;;;;;;;;13.00;99.90;;;;;;5069907;28;19924;-74
2022/10/21 06:00:39;;;;;;;;;;;13.00;99.90;;;;;;5071111;28;20479;-73
2022/10/21 06:03:07;;;;;;;;;;;13.00;99.90;;;;;;5077137;28;20953;-73
2022/10/21 06:05:34;;;;;;;;;;;13.00;99.90;;;;;;5075108;28;19985;-73
2022/10/21 06:08:00;;;;;;;;;;;13.00;99.90;;;;;;5088436;28;19983;-73
2022/10/21 06:10:27;;;;;;;;;;;13.00;99.90;;;;;;5089642;28;19975;-73
2022/10/21 06:12:54;;;;;;;;;;;13.00;99.90;;;;;;5089831;28;19930;-73
2022/10/21 06:15:21;;;;;;;;;;;13.10;99.90;;;;;;5081479;28;20018;-73
2022/10/21 06:17:47;;;;;;;;;;;13.00;99.90;;;;;;5080217;28;20393;-73
2022/10/21 06:20:16;;;;;;;;;;;13.00;99.90;;;;;;5081183;28;19971;-73
2022/10/21 06:22:42;;;;;;;;;;;13.00;99.90;;;;;;5087019;28;19928;-73
2022/10/21 06:25:09;;;;;;;;;;;13.00;99.90;;;;;;5090377;28;19931;-73
2022/10/21 06:27:36;;;;;;;;;;;13.00;99.90;;;;;;5091657;28;20022;-74
2022/10/21 06:30:03;;;;;;;;;;;13.00;99.90;;;;;;5084630;28;19954;-73
2022/10/21 06:32:31;;;;;;;;;;;13.10;99.90;;;;;;5091596;28;19986;-73
2022/10/21 06:34:58;;;;;;;;;;;13.10;99.90;;;;;;5088081;28;19928;-73
2022/10/21 06:37:26;;;;;;;;;;;13.00;99.90;;;;;;5075478;28;19974;-73
2022/10/21 06:39:53;;;;;;;;;;;13.00;99.90;;;;;;5091891;28;19943;-73
2022/10/21 06:42:19;;;;;;;;;;;13.00;99.90;;;;;;5085887;28;20016;-73
2022/10/21 06:44:47;;;;;;;;;;;13.00;99.90;;;;;;5079347;28;20321;-73
2022/10/21 06:47:14;;;;;;;;;;;13.00;99.90;;;;;;5084043;28;20559;-73
2022/10/21 06:49:41;;;;;;;;;;;13.10;99.90;;;;;;5084816;28;19925;-73
2022/10/21 06:52:08;;;;;;;;;;;13.00;99.90;;;;;;5086479;28;20305;-73
2022/10/21 06:54:36;;;;;;;;;;;13.00;99.90;;;;;;5082397;28;19924;-73
2022/10/21 06:57:03;;;;;;;;;;;13.00;99.90;;;;;;5086533;28;19932;-73
2022/10/21 06:59:30;;;;;;;;;;;13.00;99.90;;;;;;5078385;28;20018;-73
2022/10/21 07:01:57;;;;;;;;;;;13.00;99.90;;;;;;5082119;28;20020;-73
2022/10/21 07:04:23;;;;;;;;;;;13.00;99.90;;;;;;5096563;28;19965;-73
2022/10/21 07:06:50;;;;;;;;;;;13.00;99.90;;;;;;5089656;28;19946;-73
2022/10/21 07:09:17;;;;;;;;;;;13.00;99.90;;;;;;5087032;28;19928;-73
2022/10/21 07:11:45;;;;;;;;;;;13.00;99.90;;;;;;5096229;28;19923;-74
2022/10/21 07:14:12;;;;;;;;;;;13.00;99.90;;;;;;5089043;28;19967;-73
2022/10/21 07:16:39;;;;;;;;;;;13.10;99.90;;;;;;5083131;28;19924;-74
2022/10/21 07:19:06;;;;;;;;;;;13.00;99.90;;;;;;5089765;28;19964;-73
2022/10/21 07:21:33;;;;;;;;;;;13.00;99.90;;;;;;5088782;28;19938;-73
2022/10/21 07:24:00;;;;;;;;;;;13.10;99.90;;;;;;5082789;28;19931;-73
2022/10/21 07:26:28;;;;;;;;;;;13.00;99.90;;;;;;5078405;28;19924;-73
2022/10/21 07:28:57;;;;;;;;;;;13.00;99.90;;;;;;5088652;28;20393;-73
2022/10/21 07:31:24;;;;;;;;;;;13.00;99.90;;;;;;5079371;28;19932;-73
2022/10/21 07:33:51;;;;;;;;;;;13.00;99.90;;;;;;5082153;28;19924;-73
2022/10/21 07:36:19;;;;;;;;;;;13.00;99.90;;;;;;5090802;28;20007;-73
2022/10/21 07:38:46;;;;;;;;;;;13.00;99.90;;;;;;5090243;28;19924;-73
2022/10/21 07:41:14;;;;;;;;;;;13.00;99.90;;;;;;5082705;28;19955;-73
2022/10/21 07:43:41;;;;;;;;;;;13.00;99.90;;;;;;5092725;28;20429;-73
2022/10/21 07:46:12;;;;;;;;;;;13.00;99.90;;;;;;5091423;28;19924;-73
2022/10/21 07:48:39;;;;;;;;;;;13.10;99.90;;;;;;5095807;28;20348;-73
2022/10/21 07:51:07;;;;;;;;;;;13.00;99.90;;;;;;5088023;28;19930;-73
2022/10/21 07:53:34;;;;;;;;;;;13.00;99.90;;;;;;5081747;28;20459;-73
2022/10/21 07:56:02;;;;;;;;;;;13.10;99.90;;;;;;5073608;28;20473;-73
2022/10/21 07:58:29;;;;;;;;;;;13.10;99.90;;;;;;5085789;28;19924;-72
2022/10/21 08:00:57;;;;;;;;;;;13.10;99.90;;;;;;5085886;28;20014;-73
2022/10/21 08:03:25;;;;;;;;;;;13.10;99.90;;;;;;5086954;28;19972;-73
2022/10/21 08:05:52;;;;;;;;;;;13.10;99.90;;;;;;5089998;28;19928;-73
2022/10/21 08:08:20;;;;;;;;;;;13.10;99.90;;;;;;5090776;28;20432;-73
2022/10/21 08:10:47;;;;;;;;;;;13.10;99.90;;;;;;5087117;28;19924;-73
2022/10/21 08:13:14;;;;;;;;;;;13.10;99.90;;;;;;5087567;28;20433;-73
2022/10/21 08:15:41;;;;;;;;;;;13.10;99.90;;;;;;5085398;28;19990;-73
2022/10/21 08:18:08;;;;;;;;;;;13.10;99.90;;;;;;5087825;28;19928;-73
2022/10/21 08:23:05;;;;;;;;;;;13.10;99.90;;;;;;5059265;28;19936;-75
2022/10/21 08:25:32;;;;;;;;;;;13.20;99.90;;;;;;5097206;28;19924;-75
2022/10/21 08:27:58;;;;;;;;;;;13.20;99.90;;;;;;5065647;28;19947;-75
2022/10/21 08:30:28;;;;;;;;;;;13.20;99.90;;;;;;5062972;28;19951;-75
2022/10/21 08:32:55;;;;;;;;;;;13.20;99.90;;;;;;5068609;28;19925;-74
2022/10/21 08:35:22;;;;;;;;;;;13.20;99.90;;;;;;5067056;28;20408;-75
2022/10/21 08:37:49;;;;;;;;;;;13.20;99.90;;;;;;5060722;28;19955;-75
2022/10/21 08:40:18;;;;;;;;;;;13.20;99.90;;;;;;5067948;28;19947;-75
2022/10/21 08:42:45;;;;;;;;;;;13.20;99.90;;;;;;5060482;28;20045;-75
2022/10/21 08:45:14;;;;;;;;;;;13.20;99.90;;;;;;5062904;28;20382;-75
2022/10/21 08:47:44;;;;;;;;;;;13.20;99.90;;;;;;5064158;28;20337;-76
2022/10/21 08:50:13;;;;;;;;;;;13.20;99.90;;;;;;5063948;28;19935;-76
2022/10/21 08:52:42;;;;;;;;;;;13.20;99.90;;;;;;5065059;28;19924;-76
2022/10/21 08:55:14;;;;;;;;;;;13.20;99.90;;;;;;5067342;28;19968;-75
2022/10/21 08:57:42;;;;;;;;;;;13.30;99.90;;;;;;5063326;28;19972;-75
2022/10/21 09:00:17;;;;;;;;;;;13.20;99.90;;;;;;5065810;28;20437;-75
2022/10/21 09:02:53;;;;;;;;;;;13.20;99.90;;;;;;5066926;28;19956;-75
2022/10/21 09:05:33;;;;;;;;;;;13.20;99.90;;;;;;5056664;28;20008;-75
2022/10/21 09:08:11;;;;;;;;;;;13.30;99.90;;;;;;5068452;28;20017;-76
2022/10/21 09:10:44;;;;;;;;;;;13.30;99.90;;;;;;5069128;28;19925;-75
2022/10/21 09:13:17;;;;;;;;;;;13.30;99.90;;;;;;5063464;28;20026;-75
2022/10/21 09:15:50;;;;;;;;;;;13.30;99.90;;;;;;5065994;28;20459;-75
2022/10/21 09:18:21;;;;;;;;;;;13.30;99.90;;;;;;5063162;28;19942;-75
2022/10/21 09:20:52;;;;;;;;;;;13.30;99.90;;;;;;5065303;28;19936;-75
2022/10/21 09:23:28;;;;;;;;;;;13.30;99.90;;;;;;5070060;28;19932;-75
2022/10/21 09:25:59;;;;;;;;;;;13.30;99.90;;;;;;5058623;28;19956;-75
2022/10/21 09:28:28;;;;;;;;;;;13.30;99.90;;;;;;5070858;28;19925;-75
2022/10/21 09:30:55;;;;;;;;;;;13.30;99.90;;;;;;5071308;28;19928;-74
2022/10/21 09:33:24;;;;;;;;;;;13.30;99.90;;;;;;5069953;28;19928;-75
2022/10/21 09:35:53;;;;;;;;;;;13.30;99.90;;;;;;5067062;28;19978;-76
2022/10/21 09:38:21;;;;;;;;;;;13.30;99.90;;;;;;5067944;28;19925;-76
2022/10/21 09:40:50;;;;;;;;;;;13.30;99.90;;;;;;5067155;28;19940;-75
2022/10/21 09:43:17;;;;;;;;;;;13.30;99.90;;;;;;5069771;28;19925;-77
2022/10/21 09:45:46;;;;;;;;;;;13.40;99.90;;;;;;5067734;28;20367;-75
2022/10/21 09:48:20;;;;;;;;;;;13.40;99.90;;;;;;5069315;28;20018;-73
2022/10/21 09:50:49;;;;;;;;;;;13.40;99.90;;;;;;5065074;28;20010;-75
2022/10/21 09:53:17;;;;;;;;;;;13.40;99.90;;;;;;5066367;28;19940;-75
2022/10/21 09:55:45;;;;;;;;;;;13.40;99.90;;;;;;5062891;28;19943;-76
2022/10/21 09:58:23;;;;;;;;;;;13.40;99.90;;;;;;5071575;28;19925;-75
2022/10/21 10:00:51;;;;;;;;;;;13.40;99.90;;;;;;5067980;28;19970;-75
2022/10/21 10:03:32;;;;;;;;;;;13.40;99.90;;;;;;5075851;28;20331;-74
2022/10/21 10:05:59;;;;;;;;;;;13.40;99.90;;;;;;5068076;28;19978;-74
2022/10/21 10:08:31;;;;;;;;;;;13.40;99.90;;;;;;5070559;28;20047;-75
2022/10/21 10:11:02;;;;;;;;;;;13.50;99.90;;;;;;5067638;28;20017;-75
2022/10/21 10:13:30;;;;;;;;;;;13.50;99.90;;;;;;5065785;28;20467;-75
2022/10/21 10:16:11;;;;;;;;;;;13.50;99.90;;;;;;5066180;28;19932;-75
2022/10/21 10:18:38;;;;;;;;;;;13.50;99.90;;;;;;5066705;28;19932;-76
2022/10/21 10:21:05;;;;;;;;;;;13.50;99.90;;;;;;5069341;28;19924;-75
2022/10/21 10:23:41;;;;;;;;;;;13.50;99.90;;;;;;5070080;28;20011;-76
2022/10/21 10:26:08;;;;;;;;;;;13.50;99.90;;;;;;5066048;28;20382;-75
2022/10/21 10:28:35;;;;;;;;;;;13.50;99.90;;;;;;5066965;28;19955;-75
2022/10/21 10:31:03;;;;;;;;;;;13.50;99.90;;;;;;5070242;28;19924;-75
2022/10/21 10:33:31;;;;;;;;;;;13.50;99.90;;;;;;5068731;28;19931;-75
2022/10/21 10:35:59;;;;;;;;;;;13.50;99.90;;;;;;5057043;28;19972;-75
2022/10/21 10:38:28;;;;;;;;;;;13.50;99.90;;;;;;5062232;28;19928;-75
2022/10/21 10:41:02;;;;;;;;;;;13.60;99.90;;;;;;5064582;28;20450;-75
2022/10/21 10:43:30;;;;;;;;;;;13.60;99.90;;;;;;5069537;28;19999;-75
2022/10/21 10:45:58;;;;;;;;;;;13.60;99.90;;;;;;5064505;28;20011;-75
2022/10/21 10:48:29;;;;;;;;;;;13.60;99.90;;;;;;5072398;28;20377;-76
2022/10/21 10:50:57;;;;;;;;;;;13.60;99.90;;;;;;5061946;28;19928;-75
2022/10/21 10:53:27;;;;;;;;;;;13.60;99.90;;;;;;5069465;28;19931;-76
2022/10/21 10:55:57;;;;;;;;;;;13.60;99.90;;;;;;5065531;28;19964;-76
2022/10/21 10:58:26;;;;;;;;;;;13.60;99.90;;;;;;5074928;28;20487;-75
2022/10/21 11:00:55;;;;;;;;;;;13.70;99.90;;;;;;5068831;28;20019;-76
2022/10/21 11:03:23;;;;;;;;;;;13.70;99.90;;;;;;5071141;28;20019;-76
2022/10/21 11:05:53;;;;;;;;;;;13.70;99.90;;;;;;5065832;28;19962;-75
2022/10/21 11:08:25;;;;;;;;;;;13.70;99.90;;;;;;5068992;28;19929;-75
2022/10/21 11:10:54;;;;;;;;;;;13.70;99.90;;;;;;5100375;27;19924;-76
2022/10/21 11:13:22;;;;;;;;;;;13.80;99.90;;;;;;5060857;28;20356;-75
2022/10/21 11:16:04;;;;;;;;;;;13.70;99.90;;;;;;5063538;28;19958;-75
2022/10/21 11:18:33;;;;;;;;;;;13.80;99.90;;;;;;5063906;28;19931;-76
2022/10/21 11:21:11;;;;;;;;;;;13.80;99.90;;;;;;5059219;28;19931;-76
2022/10/21 11:23:44;;;;;;;;;;;13.80;99.90;;;;;;5054206;28;19924;-76
2022/10/21 11:26:18;;;;;;;;;;;13.80;99.90;;;;;;5073635;28;19979;-73
2022/10/21 11:28:48;;;;;;;;;;;13.90;99.90;;;;;;5056665;28;20011;-76
2022/10/21 11:31:20;;;;;;;;;;;13.90;99.90;;;;;;5058549;28;19935;-75
2022/10/21 11:33:50;;;;;;;;;;;13.90;99.90;;;;;;5062979;28;19924;-80
2022/10/21 11:36:24;;;;;;;;;;;13.90;99.90;;;;;;5053818;28;19936;-75
2022/10/21 11:38:54;;;;;;;;;;;13.90;99.90;;;;;;5060666;28;20017;-75
2022/10/21 11:41:25;;;;;;;;;;;13.90;99.90;;;;;;5054512;28;19931;-75
2022/10/21 11:43:56;;;;;;;;;;;13.90;99.90;;;;;;5041993;28;20014;-80
2022/10/21 11:46:27;;;;;;;;;;;13.90;99.90;;;;;;5028774;28;20395;-76
2022/10/21 11:49:00;;;;;;;;;;;14.00;99.90;;;;;;5045208;28;20003;-75
2022/10/21 11:51:35;;;;;;;;;;;14.00;99.90;;;;;;5062502;28;20022;-74
2022/10/21 11:54:13;;;;;;;;;;;14.00;99.90;;;;;;5095660;28;20336;-75
2022/10/21 11:56:44;;;;;;;;;;;14.00;99.90;;;;;;5058527;28;20345;-75
2022/10/21 11:59:20;;;;;;;;;;;14.00;99.90;;;;;;5058254;28;19924;-75
2022/10/21 12:01:50;;;;;;;;;;;14.00;99.90;;;;;;5057393;28;20165;-74
2022/10/21 12:04:33;;;;;;;;;;;14.10;99.90;;;;;;5064587;28;20019;-75
2022/10/21 12:07:18;;;;;;;;;;;14.10;99.90;;;;;;5058020;28;20359;-75
2022/10/21 12:09:49;;;;;;;;;;;14.10;99.90;;;;;;5055142;28;19929;-75
2022/10/21 12:12:17;;;;;;;;;;;14.10;99.90;;;;;;5041519;28;20240;-75
2022/10/21 12:14:46;;;;;;;;;;;14.10;99.90;;;;;;5050398;28;19932;-75
2022/10/21 12:17:16;;;;;;;;;;;14.10;99.90;;;;;;5057337;28;19932;-75
2022/10/21 12:19:46;;;;;;;;;;;14.10;99.90;;;;;;5056989;28;19964;-73
2022/10/21 12:22:13;;;;;;;;;;;14.20;99.90;;;;;;5060332;28;19931;-75
2022/10/21 12:24:43;;;;;;;;;;;14.20;99.90;;;;;;5048361;28;19928;-75
2022/10/21 12:27:16;;;;;;;;;;;14.10;99.90;;;;;;5038094;28;19929;-78
2022/10/21 12:29:52;;;;;;;;;;;14.20;99.90;;;;;;5077053;28;21451;-75
2022/10/21 12:32:22;;;;;;;;;;;14.30;99.90;;;;;;5057456;28;19932;-73
2022/10/21 12:34:49;;;;;;;;;;;14.30;99.90;;;;;;5062965;28;19934;-75
2022/10/21 12:37:41;;;;;;;;;;;14.30;99.90;;;;;;5044079;28;19925;-76
2022/10/21 12:40:10;;;;;;;;;;;14.30;99.90;;;;;;5059526;28;19932;-76
2022/10/21 12:42:44;;;;;;;;;;;14.40;99.90;;;;;;5050734;28;20397;-76
2022/10/21 12:45:25;;;;;;;;;;;14.40;99.90;;;;;;5041738;28;20394;-76
2022/10/21 12:47:52;;;;;;;;;;;14.40;99.90;;;;;;5072146;28;19932;-76
2022/10/21 12:50:24;;;;;;;;;;;14.40;99.90;;;;;;5051748;28;19939;-76
2022/10/21 12:53:15;;;;;;;;;;;14.40;99.90;;;;;;5051244;28;19928;-75
2022/10/21 12:55:48;;;;;;;;;;;14.40;99.90;;;;;;5045316;28;19925;-75
2022/10/21 12:58:22;;;;;;;;;;;14.40;99.90;;;;;;5046630;28;19931;-75
2022/10/21 13:00:53;;;;;;;;;;;14.40;99.90;;;;;;5050162;28;19986;-74
2022/10/21 13:03:42;;;;;;;;;;;14.50;99.90;;;;;;5034815;28;19928;-75
2022/10/21 13:06:09;;;;;;;;;;;14.40;99.90;;;;;;5046622;28;19932;-76
2022/10/21 13:08:50;;;;;;;;;;;14.50;99.90;;;;;;5074806;28;20007;-76
2022/10/21 13:11:31;;;;;;;;;;;14.50;99.90;;;;;;5038793;28;19924;-76
2022/10/21 13:14:16;;;;;;;;;;;14.60;99.90;;;;;;5047185;28;20029;-75
2022/10/21 13:16:44;;;;;;;;;;;14.60;99.90;;;;;;5038089;28;20060;-76
2022/10/21 13:19:30;;;;;;;;;;;14.60;99.90;;;;;;5037681;28;19943;-76
2022/10/21 13:22:02;;;;;;;;;;;14.60;99.90;;;;;;5031446;28;19929;-79
2022/10/21 13:24:35;;;;;;;;;;;14.60;99.90;;;;;;5032245;28;20616;-80
2022/10/21 13:27:05;;;;;;;;;;;14.60;99.90;;;;;;5040888;28;19932;-80
2022/10/21 13:29:40;;;;;;;;;;;14.60;99.90;;;;;;5050333;28;19933;-75
2022/10/21 13:32:25;;;;;;;;;;;14.70;99.90;;;;;;5032895;28;20390;-77
2022/10/21 13:35:03;;;;;;;;;;;14.60;99.90;;;;;;5070568;28;19928;-79
2022/10/21 13:37:32;;;;;;;;;;;14.70;99.90;;;;;;5069619;28;20447;-78
2022/10/21 13:40:00;;;;;;;;;;;14.70;99.90;;;;;;5051948;28;19933;-77
2022/10/21 13:42:32;;;;;;;;;;;14.70;99.90;;;;;;5054131;28;19992;-74
2022/10/21 13:45:02;;;;;;;;;;;14.70;99.90;;;;;;5073110;28;19932;-76
2022/10/21 13:47:30;;;;;;;;;;;14.70;99.90;;;;;;5053870;28;19932;-74
2022/10/21 13:50:00;;;;;;;;;;;14.70;99.90;;;;;;5040281;28;19924;-74
2022/10/21 13:52:32;;;;;;;;;;;14.70;99.90;;;;;;5018907;28;20322;-85
2022/10/21 13:54:59;;;;;;;;;;;14.70;99.90;;;;;;5027369;28;19942;-75
2022/10/21 13:57:29;;;;;;;;;;;14.80;99.90;;;;;;5037911;28;20066;-76
2022/10/21 13:59:59;;;;;;;;;;;14.80;99.90;;;;;;5029415;28;20066;-77
2022/10/21 14:02:26;;;;;;;;;;;14.80;99.90;;;;;;5037309;28;22038;-75
2022/10/21 14:04:56;;;;;;;;;;;14.80;99.90;;;;;;5035292;28;19924;-76
2022/10/21 14:07:29;;;;;;;;;;;14.80;99.90;;;;;;5023968;28;20035;-76
2022/10/21 14:09:58;;;;;;;;;;;14.80;99.90;;;;;;5022154;28;19939;-75
2022/10/21 14:12:26;;;;;;;;;;;14.80;99.90;;;;;;5040742;28;19932;-76
2022/10/21 14:14:57;;;;;;;;;;;14.80;99.90;;;;;;5023599;28;19932;-75
2022/10/21 14:17:27;;;;;;;;;;;14.90;99.90;;;;;;5034319;28;19978;-75
2022/10/21 14:19:55;;;;;;;;;;;14.90;99.90;;;;;;5032497;28;20417;-75
2022/10/21 14:22:24;;;;;;;;;;;14.90;99.90;;;;;;5026483;28;19936;-75
2022/10/21 14:24:55;;;;;;;;;;;14.90;99.90;;;;;;5029405;28;19931;-75
2022/10/21 14:27:25;;;;;;;;;;;14.90;99.90;;;;;;5038988;28;19928;-75
2022/10/21 14:29:54;;;;;;;;;;;14.90;99.90;;;;;;5025578;28;20038;-72